Time;durP1;ratioP1;P1;durP2;ratioP2;P2;SDS_P1;SDS_P2;PMS_P1;PMS_P2;Temp;Humidity;BMP_temperature;BMP_pressure;BME280_temperature;BME280_humidity;BME280_pressure;Samples;Min_cycle;Max_cycle;Signal;HPM_P1;HPM_P2
2022/04/24 00:02:13;;;;;;;1.92;0.90;;;10.50;99.90;;;;;;5036075;28;20029;-74
2022/04/24 00:04:39;;;;;;;2.85;0.80;;;10.50;99.90;;;;;;5026923;28;20047;-75
2022/04/24 00:07:07;;;;;;;1.42;0.80;;;10.50;99.90;;;;;;5034417;28;20108;-74
2022/04/24 00:09:33;;;;;;;1.38;0.75;;;10.40;99.90;;;;;;5032693;28;20091;-75
2022/04/24 00:12:00;;;;;;;1.80;0.90;;;10.40;99.90;;;;;;5036733;28;20029;-74
2022/04/24 00:14:27;;;;;;;1.90;1.00;;;10.30;99.90;;;;;;5031599;28;20067;-74
2022/04/24 00:16:52;;;;;;;1.55;0.77;;;10.30;99.90;;;;;;5033055;28;20040;-74
2022/04/24 00:19:19;;;;;;;1.58;0.80;;;10.30;99.90;;;;;;5014823;28;20036;-74
2022/04/24 00:21:45;;;;;;;1.70;0.90;;;10.30;99.90;;;;;;5014501;28;20474;-74
2022/04/24 00:24:11;;;;;;;1.88;0.80;;;10.20;99.90;;;;;;5036494;28;20056;-75
2022/04/24 00:26:37;;;;;;;1.48;0.70;;;10.20;99.90;;;;;;5036242;28;20106;-74
2022/04/24 00:29:03;;;;;;;2.35;0.98;;;10.20;99.90;;;;;;5032005;28;20037;-75
2022/04/24 00:31:29;;;;;;;2.20;0.98;;;10.10;99.90;;;;;;5044005;28;20033;-74
2022/04/24 00:33:54;;;;;;;3.10;1.38;;;10.00;99.90;;;;;;5035044;28;20052;-74
2022/04/24 00:36:20;;;;;;;1.90;1.25;;;9.90;99.90;;;;;;5002850;28;20044;-75
2022/04/24 00:38:45;;;;;;;2.10;0.80;;;10.00;99.90;;;;;;5036660;28;20040;-75
2022/04/24 00:41:11;;;;;;;2.88;1.40;;;10.00;99.90;;;;;;5013496;28;20044;-74
2022/04/24 00:43:37;;;;;;;1.80;1.30;;;10.00;99.90;;;;;;5037802;28;20478;-74
2022/04/24 00:46:39;;;;;;;2.00;1.05;;;10.00;99.90;;;;;;5023756;28;20036;-75
2022/04/24 00:49:06;;;;;;;1.90;0.93;;;9.90;99.90;;;;;;5022692;28;20989;-75
2022/04/24 00:51:31;;;;;;;2.08;1.45;;;9.90;99.90;;;;;;5030109;28;20032;-74
2022/04/24 00:53:59;;;;;;;2.40;1.70;;;9.90;99.90;;;;;;5031159;28;20041;-75
2022/04/24 00:56:30;;;;;;;2.50;1.77;;;9.90;99.90;;;;;;5002804;28;20146;-74
2022/04/24 00:58:57;;;;;;;3.22;2.22;;;9.90;99.90;;;;;;5036282;28;20040;-75
2022/04/24 01:01:23;;;;;;;2.50;2.13;;;9.80;99.90;;;;;;5010500;28;20385;-73
2022/04/24 01:03:48;;;;;;;2.53;1.98;;;9.80;99.90;;;;;;5035736;28;20031;-74
2022/04/24 01:06:14;;;;;;;2.40;1.77;;;9.70;99.90;;;;;;5035330;28;20055;-74
2022/04/24 01:08:40;;;;;;;2.83;2.03;;;9.70;99.90;;;;;;5034893;28;20056;-74
2022/04/24 01:11:05;;;;;;;3.28;2.30;;;9.70;99.90;;;;;;5030012;28;20111;-74
2022/04/24 01:13:31;;;;;;;3.13;2.42;;;9.70;99.90;;;;;;5035718;28;20036;-74
2022/04/24 01:15:57;;;;;;;2.28;1.25;;;9.70;99.90;;;;;;5036277;28;20097;-74
2022/04/24 01:18:24;;;;;;;3.55;2.78;;;9.70;99.90;;;;;;5036914;28;20120;-74
2022/04/24 01:20:50;;;;;;;2.53;1.50;;;9.60;99.90;;;;;;5036185;28;20090;-74
2022/04/24 01:23:16;;;;;;;2.97;2.30;;;9.60;99.90;;;;;;5019005;28;20033;-75
2022/04/24 01:25:41;;;;;;;3.00;2.42;;;9.50;99.90;;;;;;5036874;28;20043;-74
2022/04/24 01:28:08;;;;;;;2.55;1.90;;;9.50;99.90;;;;;;5036889;28;20048;-75
2022/04/24 01:30:35;;;;;;;2.90;2.30;;;9.50;99.90;;;;;;5036138;28;20041;-74
2022/04/24 01:33:00;;;;;;;2.72;1.75;;;9.50;99.90;;;;;;5033277;28;20045;-74
2022/04/24 01:35:26;;;;;;;2.30;1.35;;;9.40;99.90;;;;;;5035356;28;20099;-74
2022/04/24 01:37:55;;;;;;;2.20;1.52;;;9.30;99.90;;;;;;5034422;28;20037;-74
2022/04/24 01:40:21;;;;;;;2.38;1.45;;;9.30;99.90;;;;;;5035438;28;20021;-74
2022/04/24 01:42:46;;;;;;;2.55;1.77;;;9.30;99.90;;;;;;5034978;28;20036;-77
2022/04/24 01:45:12;;;;;;;3.17;2.40;;;9.30;99.90;;;;;;5036083;28;20124;-74
2022/04/24 01:47:37;;;;;;;3.00;2.42;;;9.30;99.90;;;;;;5035005;28;20029;-74
2022/04/24 01:50:03;;;;;;;3.45;2.60;;;9.30;99.90;;;;;;5034818;28;20033;-74
2022/04/24 01:52:29;;;;;;;3.13;2.35;;;9.30;99.90;;;;;;5031191;28;20285;-75
2022/04/24 01:54:54;;;;;;;3.53;2.30;;;9.30;99.90;;;;;;5051990;28;20049;-74
2022/04/24 01:57:20;;;;;;;4.75;2.55;;;9.20;99.90;;;;;;5018855;28;20122;-74
2022/04/24 01:59:46;;;;;;;2.50;1.83;;;9.20;99.90;;;;;;5018076;28;20122;-74
2022/04/24 02:02:11;;;;;;;2.72;1.98;;;9.20;99.90;;;;;;5033214;28;20056;-74
2022/04/24 02:04:37;;;;;;;3.42;2.70;;;9.20;99.90;;;;;;5035564;28;20569;-74
2022/04/24 02:07:02;;;;;;;3.45;2.97;;;9.10;99.90;;;;;;5034422;28;20029;-74
2022/04/24 02:09:28;;;;;;;3.70;2.83;;;9.10;99.90;;;;;;5043371;28;20029;-74
2022/04/24 02:11:54;;;;;;;3.80;2.33;;;9.10;99.90;;;;;;5033233;28;20029;-74
2022/04/24 02:14:20;;;;;;;3.60;2.13;;;9.10;99.90;;;;;;5034674;28;20037;-74
2022/04/24 02:16:45;;;;;;;2.90;2.50;;;9.00;99.90;;;;;;5017782;28;20070;-74
2022/04/24 02:19:11;;;;;;;2.63;2.17;;;9.10;99.90;;;;;;5035030;28;20029;-74
2022/04/24 02:21:36;;;;;;;3.47;2.35;;;9.00;99.90;;;;;;5033539;28;20109;-74
2022/04/24 02:24:02;;;;;;;3.30;2.30;;;9.00;99.90;;;;;;5018399;28;20470;-74
2022/04/24 02:26:28;;;;;;;3.38;2.75;;;8.90;99.90;;;;;;5019529;28;20116;-74
2022/04/24 02:28:54;;;;;;;4.68;3.00;;;9.00;99.90;;;;;;5019603;28;20083;-75
2022/04/24 02:31:19;;;;;;;2.65;2.30;;;8.90;99.90;;;;;;5035116;28;20037;-74
2022/04/24 02:33:45;;;;;;;3.47;2.67;;;8.90;99.90;;;;;;5033116;28;20049;-74
2022/04/24 02:36:11;;;;;;;2.50;1.92;;;8.90;99.90;;;;;;5034139;28;20021;-74
2022/04/24 02:38:36;;;;;;;3.35;2.17;;;8.90;99.90;;;;;;5035008;28;20033;-75
2022/04/24 02:41:02;;;;;;;2.58;1.65;;;8.80;99.90;;;;;;5034807;28;20112;-74
2022/04/24 02:43:27;;;;;;;3.38;2.47;;;8.80;99.90;;;;;;5036194;28;20029;-74
2022/04/24 02:45:53;;;;;;;2.30;1.85;;;8.80;99.90;;;;;;5034917;28;20056;-74
2022/04/24 02:48:19;;;;;;;3.30;2.97;;;8.80;99.90;;;;;;5039319;28;20057;-74
2022/04/24 02:50:44;;;;;;;2.85;2.33;;;8.80;99.90;;;;;;5037908;28;20033;-74
2022/04/24 02:53:10;;;;;;;2.65;1.40;;;8.80;99.90;;;;;;5032720;28;20082;-74
2022/04/24 02:55:36;;;;;;;2.80;1.98;;;8.70;99.90;;;;;;5053383;28;20060;-74
2022/04/24 02:58:02;;;;;;;3.88;1.92;;;8.70;99.90;;;;;;5039112;28;20037;-75
2022/04/24 03:00:39;;;;;;;3.33;2.22;;;8.70;99.90;;;;;;5038351;28;20068;-74
2022/04/24 03:03:09;;;;;;;2.78;1.60;;;8.70;99.90;;;;;;5055813;28;20400;-75
2022/04/24 03:05:35;;;;;;;3.80;2.00;;;8.70;99.90;;;;;;5038039;28;20055;-74
2022/04/24 03:08:01;;;;;;;3.67;2.33;;;8.70;99.90;;;;;;5020512;28;20632;-74
2022/04/24 03:10:28;;;;;;;4.43;3.50;;;8.70;99.90;;;;;;5040696;28;20052;-74
2022/04/24 03:12:54;;;;;;;4.28;3.28;;;8.60;99.90;;;;;;5038954;28;20652;-74
2022/04/24 03:15:20;;;;;;;2.75;1.60;;;8.60;99.90;;;;;;5052765;28;20115;-74
2022/04/24 03:17:45;;;;;;;3.97;2.35;;;8.50;99.90;;;;;;5037695;28;20115;-74
2022/04/24 03:20:12;;;;;;;2.92;2.05;;;8.60;99.90;;;;;;5037092;28;20469;-74
2022/04/24 03:22:39;;;;;;;2.97;2.20;;;8.60;99.90;;;;;;5036340;28;20053;-74
2022/04/24 03:25:07;;;;;;;3.70;2.40;;;8.50;99.90;;;;;;5034601;28;20454;-75
2022/04/24 03:27:33;;;;;;;3.50;2.00;;;8.50;99.90;;;;;;5038198;28;20036;-74
2022/04/24 03:29:58;;;;;;;3.28;1.60;;;8.40;99.90;;;;;;5036416;28;20118;-74
2022/04/24 03:32:24;;;;;;;3.55;2.03;;;8.40;99.90;;;;;;5038719;28;20032;-75
2022/04/24 03:34:50;;;;;;;3.05;2.03;;;8.30;99.90;;;;;;5037941;28;20043;-74
2022/04/24 03:37:16;;;;;;;2.85;1.38;;;8.40;99.90;;;;;;5037012;28;20246;-74
2022/04/24 03:39:42;;;;;;;3.50;1.60;;;8.40;99.90;;;;;;5036695;28;20029;-74
2022/04/24 03:42:08;;;;;;;2.90;1.52;;;8.30;99.90;;;;;;5036730;28;20094;-74
2022/04/24 03:44:34;;;;;;;2.80;2.05;;;8.30;99.90;;;;;;5037049;28;20037;-75
2022/04/24 03:46:59;;;;;;;3.13;2.13;;;8.30;99.90;;;;;;5036898;28;20109;-74
2022/04/24 03:49:26;;;;;;;3.72;2.63;;;8.30;99.90;;;;;;5032648;28;20040;-74
2022/04/24 03:51:53;;;;;;;5.45;2.38;;;8.30;99.90;;;;;;5036894;28;20102;-74
2022/04/24 03:54:19;;;;;;;3.47;2.47;;;8.30;99.90;;;;;;5037801;28;20029;-78
2022/04/24 03:56:44;;;;;;;3.00;1.70;;;8.20;99.90;;;;;;5015576;28;20103;-75
2022/04/24 03:59:10;;;;;;;3.47;2.03;;;8.20;99.90;;;;;;5019555;28;20032;-74
2022/04/24 04:01:35;;;;;;;2.75;1.83;;;8.10;99.90;;;;;;5027992;28;20053;-74
2022/04/24 04:04:01;;;;;;;2.08;1.13;;;8.10;99.90;;;;;;5037630;28;20029;-74
2022/04/24 04:06:27;;;;;;;3.40;1.50;;;8.10;99.90;;;;;;5036544;28;20465;-74
2022/04/24 04:08:53;;;;;;;3.85;1.38;;;8.10;99.90;;;;;;5035993;28;20079;-74
2022/04/24 04:11:18;;;;;;;2.60;1.17;;;8.00;99.90;;;;;;5019663;28;20139;-74
2022/04/24 04:13:44;;;;;;;2.35;1.10;;;8.00;99.90;;;;;;5037804;28;20037;-74
2022/04/24 04:16:09;;;;;;;4.03;1.60;;;8.00;99.90;;;;;;5037520;28;20780;-74
2022/04/24 04:18:36;;;;;;;2.38;1.50;;;8.00;99.90;;;;;;5037787;28;20037;-74
2022/04/24 04:21:01;;;;;;;2.90;2.05;;;7.90;99.90;;;;;;5015928;28;20036;-74
2022/04/24 04:23:27;;;;;;;3.63;1.83;;;7.90;99.90;;;;;;5015966;28;20033;-74
2022/04/24 04:25:53;;;;;;;2.38;1.40;;;7.90;99.90;;;;;;5036806;28;20067;-74
2022/04/24 04:28:18;;;;;;;2.08;1.45;;;7.90;99.90;;;;;;5036647;28;20052;-75
2022/04/24 04:30:44;;;;;;;2.85;2.35;;;7.80;99.90;;;;;;5036166;28;20032;-74
2022/04/24 04:33:10;;;;;;;2.20;1.40;;;7.90;99.90;;;;;;5036666;28;20037;-73
2022/04/24 04:35:36;;;;;;;3.50;1.92;;;7.90;99.90;;;;;;5035425;28;20741;-74
2022/04/24 04:38:02;;;;;;;2.92;1.30;;;7.90;99.90;;;;;;5034117;28;20137;-74
2022/04/24 04:40:30;;;;;;;1.80;1.00;;;7.90;99.90;;;;;;5050135;28;20342;-74
2022/04/24 04:42:56;;;;;;;1.90;0.98;;;7.90;99.90;;;;;;5036523;28;20067;-74
2022/04/24 04:45:24;;;;;;;2.67;1.65;;;7.90;99.90;;;;;;5020773;28;20065;-74
2022/04/24 04:47:51;;;;;;;2.88;1.63;;;7.90;99.90;;;;;;5034095;28;20052;-74
2022/04/24 04:50:17;;;;;;;2.65;1.45;;;7.90;99.90;;;;;;5015802;28;20036;-74
2022/04/24 04:52:43;;;;;;;2.33;1.30;;;7.90;99.90;;;;;;5034907;28;20037;-75
2022/04/24 04:55:09;;;;;;;3.58;1.85;;;7.90;99.90;;;;;;5031891;28;20065;-73
2022/04/24 04:57:35;;;;;;;2.25;1.33;;;7.90;99.90;;;;;;5019581;28;20032;-74
2022/04/24 05:00:08;;;;;;;3.53;2.05;;;7.90;99.90;;;;;;5035410;28;20397;-74
2022/04/24 05:02:40;;;;;;;2.70;1.58;;;7.90;99.90;;;;;;5035097;28;20024;-74
2022/04/24 05:05:07;;;;;;;2.70;1.30;;;7.90;99.90;;;;;;5036260;28;20053;-74
2022/04/24 05:07:35;;;;;;;2.83;2.03;;;7.90;99.90;;;;;;5019874;28;20385;-74
2022/04/24 05:10:00;;;;;;;2.58;1.67;;;8.00;99.90;;;;;;5032240;28;20041;-74
2022/04/24 05:12:27;;;;;;;3.45;1.55;;;8.00;99.90;;;;;;5033581;28;20043;-74
2022/04/24 05:14:58;;;;;;;3.58;1.63;;;8.00;99.90;;;;;;5031502;28;20104;-74
2022/04/24 05:17:24;;;;;;;2.33;1.10;;;8.10;99.90;;;;;;5034811;28;20095;-74
2022/04/24 05:19:49;;;;;;;3.53;1.63;;;8.10;99.90;;;;;;5037082;28;21798;-74
2022/04/24 05:22:15;;;;;;;2.55;1.23;;;8.10;99.90;;;;;;5034448;28;20095;-74
2022/04/24 05:24:41;;;;;;;3.42;1.73;;;8.10;99.90;;;;;;5029529;28;20033;-74
2022/04/24 05:27:07;;;;;;;3.03;1.85;;;8.20;99.90;;;;;;5033475;28;20029;-74
2022/04/24 05:29:32;;;;;;;2.88;1.20;;;8.20;99.90;;;;;;5034356;28;20435;-73
2022/04/24 05:31:58;;;;;;;2.55;1.17;;;8.20;99.90;;;;;;5034082;28;20025;-74
2022/04/24 05:34:23;;;;;;;2.88;1.70;;;8.30;99.90;;;;;;5035046;28;20041;-75
2022/04/24 05:36:49;;;;;;;2.20;1.40;;;8.30;99.90;;;;;;5034791;28;20048;-74
2022/04/24 05:39:15;;;;;;;2.08;1.15;;;8.30;99.90;;;;;;5033909;28;20063;-74
2022/04/24 05:41:40;;;;;;;2.10;1.10;;;8.40;99.90;;;;;;5034665;28;20496;-74
2022/04/24 05:44:06;;;;;;;2.67;1.73;;;8.40;99.90;;;;;;5051936;28;20040;-74
2022/04/24 05:46:31;;;;;;;1.98;1.08;;;8.50;99.90;;;;;;5036976;28;20071;-74
2022/04/24 05:49:00;;;;;;;3.28;1.38;;;8.50;99.90;;;;;;5035448;28;20017;-74
2022/04/24 05:51:26;;;;;;;1.73;0.90;;;8.50;99.90;;;;;;5034802;28;20120;-74
2022/04/24 05:53:52;;;;;;;2.03;1.15;;;8.60;99.90;;;;;;5033892;28;20053;-74
2022/04/24 05:56:18;;;;;;;3.03;1.58;;;8.60;99.90;;;;;;5034649;28;20053;-75
2022/04/24 05:58:43;;;;;;;2.20;1.35;;;8.70;99.90;;;;;;5036190;28;20033;-74
2022/04/24 06:01:09;;;;;;;1.90;1.20;;;8.70;99.90;;;;;;4999125;28;20563;-74
2022/04/24 06:03:38;;;;;;;2.65;1.38;;;8.80;99.90;;;;;;5035157;28;20039;-75
2022/04/24 06:06:04;;;;;;;3.17;1.57;;;8.80;99.90;;;;;;5034998;28;20497;-75
2022/04/24 06:08:30;;;;;;;1.77;0.98;;;8.90;99.90;;;;;;5018345;28;20073;-75
2022/04/24 06:10:55;;;;;;;2.50;1.23;;;9.00;99.90;;;;;;5035173;28;20319;-75
2022/04/24 06:13:22;;;;;;;2.88;1.50;;;9.10;99.90;;;;;;5033751;28;20413;-75
2022/04/24 06:15:48;;;;;;;2.72;1.55;;;9.20;99.90;;;;;;5017476;28;20147;-75
2022/04/24 06:18:14;;;;;;;3.72;1.50;;;9.30;99.90;;;;;;5052448;28;20041;-75
2022/04/24 06:20:39;;;;;;;2.10;1.48;;;9.40;99.90;;;;;;5037320;28;20501;-75
2022/04/24 06:23:05;;;;;;;2.20;1.27;;;9.70;99.90;;;;;;5020836;28;20163;-75
2022/04/24 06:25:33;;;;;;;3.08;1.90;;;9.70;99.90;;;;;;5038875;28;20037;-75
2022/04/24 06:28:00;;;;;;;1.88;0.98;;;9.80;99.90;;;;;;5023466;28;20028;-75
2022/04/24 06:30:28;;;;;;;2.70;1.50;;;10.00;99.90;;;;;;5037819;28;20369;-75
2022/04/24 06:32:56;;;;;;;2.28;1.17;;;10.10;99.90;;;;;;5052544;28;20032;-75
2022/04/24 06:35:22;;;;;;;2.30;1.70;;;10.30;99.90;;;;;;5020752;28;20388;-75
2022/04/24 06:37:53;;;;;;;3.42;1.90;;;10.50;99.90;;;;;;5037375;28;20041;-74
2022/04/24 06:40:20;;;;;;;2.00;1.20;;;10.50;99.90;;;;;;5039278;28;20497;-75
2022/04/24 06:42:53;;;;;;;3.38;1.40;;;10.80;99.90;;;;;;5037242;28;20603;-76
2022/04/24 06:45:45;;;;;;;2.60;1.27;;;11.10;99.90;;;;;;5022187;28;20362;-76
2022/04/24 06:48:16;;;;;;;3.40;1.70;;;11.30;99.90;;;;;;5035981;28;20041;-76
2022/04/24 06:50:44;;;;;;;2.80;1.17;;;11.30;99.90;;;;;;5017717;28;20058;-76
2022/04/24 06:53:15;;;;;;;3.22;1.35;;;11.50;99.90;;;;;;5037857;28;20127;-76
2022/04/24 06:55:42;;;;;;;2.25;1.35;;;11.50;99.90;;;;;;5022078;28;20053;-75
2022/04/24 06:58:10;;;;;;;2.20;1.27;;;11.60;99.90;;;;;;5039892;28;20033;-76
2022/04/24 07:00:38;;;;;;;2.45;1.25;;;11.70;99.90;;;;;;5039944;28;20571;-77
2022/04/24 07:03:16;;;;;;;2.15;1.30;;;11.90;99.90;;;;;;5038004;28;20043;-76
2022/04/24 07:05:42;;;;;;;2.88;1.10;;;12.00;99.90;;;;;;5034256;28;20037;-76
2022/04/24 07:08:08;;;;;;;1.80;0.80;;;12.20;99.90;;;;;;5038487;28;20112;-76
2022/04/24 07:10:35;;;;;;;2.80;0.90;;;12.20;99.90;;;;;;5035688;28;20403;-76
2022/04/24 07:13:01;;;;;;;2.15;0.98;;;12.40;99.90;;;;;;5039905;28;20503;-76
2022/04/24 07:15:33;;;;;;;1.90;1.20;;;12.50;99.90;;;;;;5047767;28;20084;-75
2022/04/24 07:17:59;;;;;;;2.33;1.50;;;12.80;99.90;;;;;;5039522;28;20031;-76
2022/04/24 07:20:27;;;;;;;1.80;1.15;;;12.60;99.90;;;;;;5020358;28;20036;-77
2022/04/24 07:23:00;;;;;;;2.72;1.30;;;12.80;99.90;;;;;;5037449;28;20043;-75
2022/04/24 07:25:27;;;;;;;2.13;1.17;;;12.60;99.90;;;;;;5040165;28;20486;-76
2022/04/24 07:27:53;;;;;;;2.70;1.20;;;12.80;99.90;;;;;;5037408;28;20048;-75
2022/04/24 07:30:20;;;;;;;1.50;0.80;;;12.80;99.90;;;;;;5032700;28;20155;-76
2022/04/24 07:32:54;;;;;;;1.77;0.93;;;13.10;99.90;;;;;;5035790;28;20619;-76
2022/04/24 07:35:28;;;;;;;2.42;1.23;;;13.20;99.90;;;;;;5036138;28;20029;-76
2022/04/24 07:37:54;;;;;;;1.90;1.20;;;13.20;99.90;;;;;;5034485;28;20035;-76
2022/04/24 07:40:22;;;;;;;2.45;0.80;;;13.10;99.90;;;;;;5033845;28;20485;-76
2022/04/24 07:42:51;;;;;;;3.40;1.10;;;13.30;99.90;;;;;;5038640;28;20033;-76
2022/04/24 07:45:27;;;;;;;2.33;1.20;;;13.50;99.90;;;;;;5039999;28;20079;-76
2022/04/24 07:47:55;;;;;;;2.05;1.25;;;13.50;99.90;;;;;;5037712;28;20040;-76
2022/04/24 07:50:23;;;;;;;2.53;0.90;;;13.40;99.90;;;;;;5071435;28;20029;-76
2022/04/24 07:52:49;;;;;;;2.08;1.25;;;13.50;99.90;;;;;;5033769;28;20040;-76
2022/04/24 07:55:19;;;;;;;1.95;0.93;;;13.90;99.90;;;;;;5037144;28;20072;-77
2022/04/24 07:57:48;;;;;;;2.75;0.90;;;13.80;99.90;;;;;;5039797;28;20037;-76
2022/04/24 08:00:15;;;;;;;1.80;0.90;;;14.10;99.90;;;;;;5039192;28;20032;-76
2022/04/24 08:03:01;;;;;;;2.00;1.00;;;14.50;99.90;;;;;;5039654;28;20035;-77
2022/04/24 08:05:32;;;;;;;2.25;1.10;;;14.20;99.90;;;;;;5038885;28;20047;-77
2022/04/24 08:08:02;;;;;;;1.88;1.15;;;14.20;99.90;;;;;;5041655;28;20345;-77
2022/04/24 08:10:31;;;;;;;2.20;1.45;;;14.00;99.90;;;;;;5036703;28;20466;-76
2022/04/24 08:12:57;;;;;;;1.95;0.93;;;14.30;99.90;;;;;;5041155;28;20061;-76
2022/04/24 08:15:23;;;;;;;2.78;1.30;;;14.60;99.90;;;;;;5021601;28;20062;-76
2022/04/24 08:17:49;;;;;;;2.00;1.10;;;14.90;99.90;;;;;;5021865;28;20029;-77
2022/04/24 08:20:16;;;;;;;1.83;1.20;;;14.80;99.90;;;;;;5023264;28;20052;-77
2022/04/24 08:22:44;;;;;;;1.30;0.60;;;15.00;99.90;;;;;;5038999;28;20064;-78
2022/04/24 08:25:12;;;;;;;2.25;1.40;;;15.20;99.90;;;;;;5034964;28;20017;-77
2022/04/24 08:27:38;;;;;;;3.95;1.48;;;14.80;99.90;;;;;;5037911;28;20036;-77
2022/04/24 08:30:06;;;;;;;1.73;1.15;;;15.10;99.90;;;;;;5052337;28;20053;-76
2022/04/24 08:32:33;;;;;;;2.00;1.60;;;15.70;99.90;;;;;;5038409;28;20025;-76
2022/04/24 08:34:59;;;;;;;3.90;1.40;;;15.40;99.90;;;;;;5035991;28;20037;-77
2022/04/24 08:37:25;;;;;;;2.33;1.23;;;15.40;99.90;;;;;;5021923;28;20090;-76
2022/04/24 08:39:52;;;;;;;2.63;1.05;;;15.60;99.90;;;;;;5020815;28;20064;-77
2022/04/24 08:42:21;;;;;;;1.85;1.27;;;15.70;99.90;;;;;;5034813;28;20381;-77
2022/04/24 08:44:49;;;;;;;1.92;0.85;;;15.90;99.90;;;;;;5034720;28;20484;-77
2022/04/24 08:47:15;;;;;;;2.05;1.15;;;16.00;99.90;;;;;;5035832;28;20120;-77
2022/04/24 08:49:42;;;;;;;1.90;1.00;;;16.10;99.90;;;;;;5020625;28;20167;-77
2022/04/24 08:52:10;;;;;;;2.60;1.45;;;16.10;99.90;;;;;;5033598;28;20419;-77
2022/04/24 08:54:41;;;;;;;2.10;1.38;;;16.00;99.90;;;;;;5020042;28;20048;-77
2022/04/24 08:57:08;;;;;;;4.28;2.42;;;16.00;99.90;;;;;;5049471;28;20029;-77
2022/04/24 08:59:37;;;;;;;3.50;1.70;;;15.40;99.90;;;;;;5035449;28;20456;-77
2022/04/24 09:02:04;;;;;;;2.53;1.40;;;15.50;99.90;;;;;;5048425;28;20112;-77
2022/04/24 09:04:34;;;;;;;2.10;1.13;;;15.70;99.90;;;;;;5033180;28;20075;-77
2022/04/24 09:07:02;;;;;;;2.80;1.25;;;15.90;99.90;;;;;;5033039;28;20186;-77
2022/04/24 09:09:29;;;;;;;2.63;2.28;;;16.50;99.90;;;;;;5036122;28;20116;-77
2022/04/24 09:12:08;;;;;;;1.92;1.00;;;16.40;99.90;;;;;;5033714;28;20025;-77
2022/04/24 09:14:34;;;;;;;2.33;1.30;;;16.90;99.90;;;;;;5034658;28;20052;-78
2022/04/24 09:17:07;;;;;;;1.83;1.05;;;16.70;99.90;;;;;;5032306;28;20029;-78
2022/04/24 09:19:33;;;;;;;1.85;0.80;;;16.90;99.90;;;;;;5033873;28;20119;-76
2022/04/24 09:22:05;;;;;;;1.63;0.90;;;17.10;99.90;;;;;;5034538;28;20094;-77
2022/04/24 09:24:52;;;;;;;2.95;1.15;;;17.00;99.90;;;;;;5033507;28;20079;-77
2022/04/24 09:27:30;;;;;;;3.42;1.00;;;17.00;99.90;;;;;;5020858;28;20044;-77
2022/04/24 09:30:04;;;;;;;3.33;2.20;;;17.50;99.90;;;;;;5035333;28;20028;-77
2022/04/24 09:32:36;;;;;;;2.55;1.42;;;16.60;99.90;;;;;;5034199;28;20115;-77
2022/04/24 09:35:03;;;;;;;2.47;1.30;;;16.80;99.90;;;;;;5014481;28;20052;-78
2022/04/24 09:37:39;;;;;;;2.70;1.10;;;17.20;99.90;;;;;;5049611;28;20095;-77
2022/04/24 09:40:06;;;;;;;3.67;1.73;;;17.10;99.90;;;;;;5034135;28;20068;-77
2022/04/24 09:42:31;;;;;;;1.88;0.95;;;17.10;99.90;;;;;;5035661;28;20036;-78
2022/04/24 09:44:57;;;;;;;2.65;1.10;;;17.40;99.90;;;;;;5033581;28;20029;-77
2022/04/24 09:47:24;;;;;;;2.03;1.02;;;17.50;99.90;;;;;;5034786;28;20033;-77
2022/04/24 09:49:51;;;;;;;2.38;1.50;;;17.50;99.90;;;;;;5033922;28;20036;-77
2022/04/24 09:52:25;;;;;;;1.70;0.80;;;17.80;99.90;;;;;;5035685;28;20159;-77
2022/04/24 09:54:53;;;;;;;2.10;1.27;;;17.90;99.90;;;;;;5034373;28;20370;-76
2022/04/24 09:57:21;;;;;;;1.77;0.80;;;17.70;99.90;;;;;;5014801;28;20094;-77
2022/04/24 09:59:48;;;;;;;1.85;1.00;;;18.10;99.90;;;;;;5034279;28;20487;-77
2022/04/24 10:02:18;;;;;;;2.70;1.30;;;18.20;99.90;;;;;;5035394;28;20060;-77
2022/04/24 10:04:45;;;;;;;3.05;1.15;;;18.40;99.90;;;;;;5014703;28;20423;-78
2022/04/24 10:07:19;;;;;;;1.75;1.00;;;18.10;99.90;;;;;;5016976;28;20036;-77
2022/04/24 10:09:46;;;;;;;2.85;2.40;;;17.90;99.90;;;;;;5013933;28;20036;-77
2022/04/24 10:12:20;;;;;;;3.17;2.05;;;17.20;99.90;;;;;;5032426;28;20384;-77
2022/04/24 10:14:56;;;;;;;3.03;1.45;;;17.70;99.90;;;;;;5033975;28;20038;-78
2022/04/24 10:17:26;;;;;;;2.15;1.60;;;18.20;99.90;;;;;;5029588;28;20452;-77
2022/04/24 10:20:21;;;;;;;2.25;1.00;;;18.20;99.90;;;;;;5030415;28;20048;-77
2022/04/24 10:22:49;;;;;;;3.17;1.25;;;18.30;99.90;;;;;;5036250;28;20471;-78
2022/04/24 10:25:15;;;;;;;3.45;0.80;;;18.00;99.90;;;;;;5034942;28;20351;-78
2022/04/24 10:27:46;;;;;;;1.95;0.80;;;18.70;99.90;;;;;;5049708;28;20033;-78
2022/04/24 10:30:23;;;;;;;2.42;1.00;;;19.00;99.90;;;;;;5032120;28;20113;-78
2022/04/24 10:32:52;;;;;;;1.90;0.70;;;18.70;99.90;;;;;;5034872;28;20120;-77
2022/04/24 10:35:19;;;;;;;6.07;2.10;;;18.70;99.90;;;;;;5018253;28;20098;-78
2022/04/24 10:37:50;;;;;;;1.95;1.00;;;18.40;99.90;;;;;;5031695;28;20032;-78
2022/04/24 10:40:18;;;;;;;1.80;1.00;;;18.50;99.90;;;;;;5029144;28;20492;-78
2022/04/24 10:42:44;;;;;;;2.05;0.90;;;18.80;99.90;;;;;;5035678;28;20048;-79
2022/04/24 10:45:15;;;;;;;1.33;0.80;;;19.00;99.90;;;;;;4999450;28;20045;-79
2022/04/24 10:47:49;;;;;;;2.30;1.23;;;18.80;99.90;;;;;;5018751;28;20040;-77
2022/04/24 10:50:18;;;;;;;1.85;0.90;;;19.00;99.90;;;;;;5032537;28;20510;-78
2022/04/24 10:52:47;;;;;;;1.85;1.10;;;18.90;99.90;;;;;;5031117;28;20159;-77
2022/04/24 10:55:15;;;;;;;3.75;0.73;;;19.10;99.90;;;;;;5033416;28;20041;-78
2022/04/24 10:57:46;;;;;;;1.65;0.60;;;19.60;99.90;;;;;;5027503;28;20384;-77
2022/04/24 11:00:19;;;;;;;1.80;0.60;;;19.50;99.90;;;;;;5029862;28;20516;-77
2022/04/24 11:02:45;;;;;;;1.88;0.80;;;19.90;99.90;;;;;;5002131;28;20874;-78
2022/04/24 11:05:11;;;;;;;2.20;0.90;;;19.60;99.90;;;;;;5032860;28;20033;-78
2022/04/24 11:07:37;;;;;;;2.75;0.52;;;19.70;99.90;;;;;;5033157;28;20366;-78
2022/04/24 11:10:06;;;;;;;2.20;0.90;;;20.10;99.90;;;;;;5036704;28;20107;-78
2022/04/24 11:12:32;;;;;;;4.15;1.83;;;19.70;99.90;;;;;;5015197;28;20041;-77
2022/04/24 11:15:03;;;;;;;3.25;0.75;;;18.80;99.90;;;;;;5036832;28;20473;-77
2022/04/24 11:17:29;;;;;;;2.00;0.80;;;19.10;99.90;;;;;;5036278;28;20025;-77
2022/04/24 11:20:00;;;;;;;3.38;0.82;;;19.70;99.90;;;;;;5036184;28;20087;-79
2022/04/24 11:22:25;;;;;;;1.25;0.60;;;19.90;99.90;;;;;;5037233;28;20033;-78
2022/04/24 11:24:55;;;;;;;2.10;0.95;;;19.50;99.90;;;;;;5015671;28;20045;-78
2022/04/24 11:27:26;;;;;;;1.73;0.60;;;19.40;99.90;;;;;;5038093;28;20101;-79
2022/04/24 11:29:51;;;;;;;1.45;0.70;;;19.90;99.90;;;;;;5035087;28;20044;-79
2022/04/24 11:32:18;;;;;;;1.25;0.45;;;19.90;99.90;;;;;;5035830;28;20033;-77
2022/04/24 11:34:45;;;;;;;3.67;1.10;;;20.00;99.90;;;;;;5035770;28;20382;-77
2022/04/24 11:37:11;;;;;;;1.50;0.70;;;19.80;99.90;;;;;;5035191;28;20029;-77
2022/04/24 11:39:40;;;;;;;0.90;0.52;;;19.70;99.90;;;;;;5036858;28;20044;-78
2022/04/24 11:42:06;;;;;;;1.35;0.60;;;20.10;99.90;;;;;;5032290;28;20036;-77
2022/04/24 11:50:14;;;;;;;2.70;0.77;;;20.10;99.90;;;;;;5037325;28;20470;-78
2022/04/24 11:52:42;;;;;;;2.70;0.80;;;19.90;99.90;;;;;;5021044;28;20077;-78
2022/04/24 11:55:10;;;;;;;2.20;0.50;;;19.90;99.90;;;;;;5031011;28;20222;-79
2022/04/24 11:57:35;;;;;;;1.02;0.50;;;20.40;99.60;;;;;;5031859;28;20060;-78
2022/04/24 12:00:03;;;;;;;2.10;0.55;;;20.40;99.90;;;;;;5036075;28;20446;-78
2022/04/24 12:02:33;;;;;;;1.23;0.60;;;20.20;99.90;;;;;;5036243;28;20036;-78
2022/04/24 12:04:59;;;;;;;2.45;1.35;;;19.80;99.90;;;;;;5019259;28;20029;-78
2022/04/24 12:07:32;;;;;;;1.35;0.50;;;19.10;99.90;;;;;;5036919;28;20027;-79
2022/04/24 12:10:01;;;;;;;1.25;0.52;;;20.10;99.90;;;;;;5019270;28;20390;-79
2022/04/24 12:12:27;;;;;;;1.30;0.60;;;19.40;99.40;;;;;;5036147;28;20503;-78
2022/04/24 12:14:53;;;;;;;5.75;1.38;;;19.40;99.90;;;;;;5035093;28;20493;-78
2022/04/24 12:17:19;;;;;;;1.80;0.80;;;18.90;99.90;;;;;;5036933;28;20036;-78
2022/04/24 12:19:51;;;;;;;1.10;0.40;;;18.60;99.90;;;;;;5037259;28;20042;-78
2022/04/24 12:22:25;;;;;;;1.23;0.57;;;19.00;99.90;;;;;;5037127;28;20645;-79
2022/04/24 12:24:51;;;;;;;2.58;0.80;;;19.70;99.80;;;;;;5034604;28;20512;-79
2022/04/24 12:27:17;;;;;;;2.83;0.70;;;19.50;99.90;;;;;;5050378;28;21712;-79
2022/04/24 12:29:48;;;;;;;1.13;0.65;;;19.90;99.60;;;;;;5035863;28;20064;-78
2022/04/24 12:32:15;;;;;;;1.20;0.50;;;20.00;98.80;;;;;;5020157;28;20072;-79
2022/04/24 12:34:42;;;;;;;1.80;0.50;;;20.10;99.50;;;;;;5037831;28;20044;-78
2022/04/24 12:37:09;;;;;;;1.42;0.65;;;20.30;99.30;;;;;;5036717;28;20428;-78
2022/04/24 12:39:35;;;;;;;2.28;0.60;;;20.30;98.80;;;;;;5035236;28;20477;-80
2022/04/24 12:42:16;;;;;;;1.38;0.60;;;20.10;98.60;;;;;;5018615;28;20120;-79
2022/04/24 12:44:43;;;;;;;1.80;0.60;;;19.20;98.70;;;;;;5035897;28;20473;-80
2022/04/24 12:47:08;;;;;;;1.75;0.50;;;19.70;98.50;;;;;;5037542;28;20036;-78
2022/04/24 12:49:34;;;;;;;2.17;0.60;;;19.90;98.00;;;;;;5036697;28;20033;-78
2022/04/24 12:52:00;;;;;;;1.45;0.50;;;19.90;98.30;;;;;;5035741;28;20029;-79
2022/04/24 12:54:26;;;;;;;1.20;0.63;;;19.90;97.70;;;;;;5030978;28;20041;-78
2022/04/24 12:56:52;;;;;;;2.63;0.70;;;20.10;97.50;;;;;;5036114;28;20056;-78
2022/04/24 12:59:17;;;;;;;2.58;0.70;;;19.80;97.90;;;;;;5018237;28;20063;-79